Time,TemperatureF,DewpointF,PressureIn,WindDirection,WindDirectionDegrees,WindSpeedMPH,WindSpeedGustMPH,Humidity,HourlyPrecipIn,Conditions,Clouds,dailyrainin,SoftwareType,DateUTC
2013-03-08 00:00:00,32.5,30.5,29.81,NNE,22,0.0,0.0,92,0.00,RA,,0.00,WeatherDisplay:10.37,2013-03-08 08:00:00,
2013-03-08 00:05:00,32.4,30.3,29.81,NNE,22,0.0,0.0,92,0.00,RA,,0.00,WeatherDisplay:10.37,2013-03-08 08:05:00,
2013-03-08 00:10:00,32.2,30.1,29.81,NNE,22,0.0,0.0,92,0.00,CLR,,0.00,WeatherDisplay:10.37,2013-03-08 08:10:00,
2013-03-08 00:15:00,32.2,30.1,29.81,NNE,22,0.0,0.0,92,0.00,CLR,,0.00,WeatherDisplay:10.37,2013-03-08 08:15:00,
2013-03-08 00:20:00,32.2,30.1,29.81,NNE,22,0.0,0.0,92,0.00,CLR,,0.00,WeatherDisplay:10.37,2013-03-08 08:20:00,
2013-03-08 00:25:00,31.8,29.8,29.81,NNE,22,0.0,0.0,92,0.00,CLR,,0.00,WeatherDisplay:10.37,2013-03-08 08:25:00,
2013-03-08 00:30:00,31.8,29.8,29.81,NNE,22,0.0,0.0,92,0.00,CLR,,0.00,WeatherDisplay:10.37,2013-03-08 08:30:00,
2013-03-08 00:35:00,31.8,29.8,29.81,NNE,22,0.0,0.0,92,0.00,CLR,,0.00,WeatherDisplay:10.37,2013-03-08 08:35:00,
2013-03-08 00:40:00,31.8,29.8,29.81,NNE,22,0.0,0.0,92,0.00,CLR,,0.00,WeatherDisplay:10.37,2013-03-08 08:40:00,
2013-03-08 00:45:00,31.8,29.8,29.82,NNE,22,0.0,0.0,92,0.00,CLR,,0.00,WeatherDisplay:10.37,2013-03-08 08:45:00,
2013-03-08 00:50:00,31.8,29.8,29.82,NNE,22,0.0,0.0,92,0.00,CLR,,0.00,WeatherDisplay:10.37,2013-03-08 08:50:00,
2013-03-08 00:55:00,31.8,29.8,29.81,NNE,22,0.0,0.0,92,0.00,CLR,,0.00,WeatherDisplay:10.37,2013-03-08 08:55:00,
2013-03-08 01:00:00,31.8,29.8,29.81,NNE,22,0.0,0.0,92,0.00,CLR,,0.00,WeatherDisplay:10.37,2013-03-08 09:00:00,
2013-03-08 01:05:00,31.8,29.8,29.81,NNE,22,0.0,0.0,92,0.00,CLR,,0.00,WeatherDisplay:10.37,2013-03-08 09:05:00,
2013-03-08 01:10:00,31.8,29.8,29.81,NNE,22,0.0,0.0,92,0.00,CLR,,0.00,WeatherDisplay:10.37,2013-03-08 09:10:00,
2013-03-08 01:15:00,32.0,29.9,29.82,NNE,22,0.0,0.0,92,0.00,CLR,,0.00,WeatherDisplay:10.37,2013-03-08 09:15:00,
2013-03-08 01:20:00,31.8,29.8,29.82,NNE,22,0.0,0.0,92,0.00,CLR,,0.00,WeatherDisplay:10.37,2013-03-08 09:20:00,
2013-03-08 01:25:00,32.0,29.9,29.82,NNE,22,0.0,0.0,92,0.00,CLR,,0.00,WeatherDisplay:10.37,2013-03-08 09:25:00,
2013-03-08 01:30:00,32.0,29.9,29.82,NNE,22,0.0,0.0,92,0.00,CLR,,0.00,WeatherDisplay:10.37,2013-03-08 09:30:00,
2013-03-08 01:35:00,32.0,30.2,29.82,NNE,22,0.0,0.0,93,0.00,CLR,,0.00,WeatherDisplay:10.37,2013-03-08 09:35:00,
2013-03-08 01:40:00,32.2,30.4,29.81,NNE,22,0.0,0.0,93,0.00,CLR,,0.00,WeatherDisplay:10.37,2013-03-08 09:40:00,
2013-03-08 01:45:00,32.2,30.4,29.82,NNE,22,0.0,0.0,93,0.00,CLR,,0.00,WeatherDisplay:10.37,2013-03-08 09:45:00,
2013-03-08 01:50:00,32.0,30.2,29.82,NNE,22,0.0,0.0,93,0.00,CLR,,0.00,WeatherDisplay:10.37,2013-03-08 09:50:00,
2013-03-08 01:55:00,31.8,30.0,29.81,NNE,22,0.0,0.0,93,0.00,CLR,,0.00,WeatherDisplay:10.37,2013-03-08 09:55:00,
2013-03-08 02:00:00,31.8,30.0,29.81,NNE,22,0.0,0.0,93,0.00,CLR,,0.00,WeatherDisplay:10.37,2013-03-08 10:00:00,
2013-03-08 02:05:00,31.8,30.0,29.81,NNE,22,0.0,0.0,93,0.00,CLR,,0.00,WeatherDisplay:10.37,2013-03-08 10:05:00,
2013-03-08 02:10:00,31.8,30.0,29.81,NNE,22,0.0,0.0,93,0.00,CLR,,0.00,WeatherDisplay:10.37,2013-03-08 10:10:00,
2013-03-08 02:15:00,31.8,30.0,29.81,NNE,22,0.0,0.0,93,0.00,CLR,,0.00,WeatherDisplay:10.37,2013-03-08 10:15:00,
2013-03-08 02:20:00,31.8,30.0,29.81,NNE,22,0.0,0.0,93,0.00,CLR,,0.00,WeatherDisplay:10.37,2013-03-08 10:20:00,
2013-03-08 02:25:00,31.6,29.8,29.81,NNE,22,0.0,0.0,93,0.00,CLR,,0.00,WeatherDisplay:10.37,2013-03-08 10:25:00,
2013-03-08 02:30:00,31.6,29.8,29.81,NNE,22,0.0,0.0,93,0.00,CLR,,0.00,WeatherDisplay:10.37,2013-03-08 10:30:00,
2013-03-08 02:35:00,31.6,29.8,29.81,NNE,22,0.0,0.0,93,0.00,CLR,,0.00,WeatherDisplay:10.37,2013-03-08 10:35:00,
2013-03-08 02:40:00,31.6,29.8,29.82,NNE,22,0.0,0.0,93,0.00,CLR,,0.00,WeatherDisplay:10.37,2013-03-08 10:40:00,
2013-03-08 02:45:00,31.3,29.5,29.82,NNE,22,0.0,0.0,93,0.00,CLR,,0.00,WeatherDisplay:10.37,2013-03-08 10:45:00,
2013-03-08 02:50:00,31.3,29.5,29.82,NNE,22,0.0,0.0,93,0.00,CLR,,0.00,WeatherDisplay:10.37,2013-03-08 10:50:00,
2013-03-08 02:55:00,31.3,29.5,29.82,NNE,22,0.0,0.0,93,0.00,CLR,,0.00,WeatherDisplay:10.37,2013-03-08 10:55:00,
2013-03-08 03:00:00,31.1,29.3,29.81,NNE,22,0.0,0.0,93,0.00,CLR,,0.00,WeatherDisplay:10.37,2013-03-08 11:00:00,
2013-03-08 03:05:00,31.1,29.3,29.81,NNE,22,0.0,0.0,93,0.00,CLR,,0.00,WeatherDisplay:10.37,2013-03-08 11:05:00,
2013-03-08 03:10:00,30.9,29.1,29.81,NNE,22,0.0,0.0,93,0.00,CLR,,0.00,WeatherDisplay:10.37,2013-03-08 11:10:00,
2013-03-08 03:15:00,30.7,29.0,29.81,NNE,22,0.0,0.0,93,0.00,CLR,,0.00,WeatherDisplay:10.37,2013-03-08 11:15:00,
2013-03-08 03:20:00,30.7,29.0,29.81,NNE,22,0.0,0.0,93,0.00,CLR,,0.00,WeatherDisplay:10.37,2013-03-08 11:20:00,
2013-03-08 03:25:00,30.7,29.0,29.81,NNE,22,0.0,0.0,93,0.00,CLR,,0.00,WeatherDisplay:10.37,2013-03-08 11:25:00,
2013-03-08 03:31:00,30.7,29.0,29.81,NNE,22,0.0,0.0,93,0.00,CLR,,0.00,WeatherDisplay:10.37,2013-03-08 11:31:00,
2013-03-08 03:36:00,30.6,28.8,29.81,NNE,22,0.0,0.0,93,0.00,CLR,,0.00,WeatherDisplay:10.37,2013-03-08 11:36:00,
2013-03-08 03:41:00,30.6,28.8,29.81,NNE,22,0.0,0.0,93,0.00,CLR,,0.00,WeatherDisplay:10.37,2013-03-08 11:41:00,
2013-03-08 03:46:00,30.4,28.6,29.81,NNE,22,0.0,0.0,93,0.00,CLR,,0.00,WeatherDisplay:10.37,2013-03-08 11:46:00,
2013-03-08 03:51:00,30.4,28.6,29.81,NNE,22,0.0,0.0,93,0.00,CLR,,0.00,WeatherDisplay:10.37,2013-03-08 11:51:00,
2013-03-08 03:56:00,30.2,28.4,29.80,NNE,22,0.0,0.0,93,0.00,CLR,,0.00,WeatherDisplay:10.37,2013-03-08 11:56:00,
2013-03-08 04:01:00,30.2,28.4,29.81,NNE,22,0.0,0.0,93,0.00,CLR,,0.00,WeatherDisplay:10.37,2013-03-08 12:01:00,
2013-03-08 04:06:00,30.2,28.4,29.81,NNE,22,0.0,0.0,93,0.00,CLR,,0.00,WeatherDisplay:10.37,2013-03-08 12:06:00,
2013-03-08 04:11:00,30.0,28.2,29.81,NNE,22,0.0,0.0,93,0.00,CLR,,0.00,WeatherDisplay:10.37,2013-03-08 12:11:00,
2013-03-08 04:17:00,30.0,28.2,29.81,NNE,22,0.0,0.0,93,0.00,CLR,,0.00,WeatherDisplay:10.37,2013-03-08 12:17:00,
2013-03-08 04:22:00,30.0,28.2,29.81,NNE,22,0.0,0.0,93,0.00,CLR,,0.00,WeatherDisplay:10.37,2013-03-08 12:22:00,
2013-03-08 04:27:00,30.0,28.2,29.81,NNE,22,0.0,0.0,93,0.00,CLR,,0.00,WeatherDisplay:10.37,2013-03-08 12:27:00,
2013-03-08 04:32:00,30.0,28.2,29.81,NNE,22,0.0,0.0,93,0.00,CLR,,0.00,WeatherDisplay:10.37,2013-03-08 12:32:00,
2013-03-08 04:37:00,29.8,28.1,29.81,NNE,22,0.0,0.0,93,0.00,CLR,,0.00,WeatherDisplay:10.37,2013-03-08 12:37:00,
2013-03-08 04:42:00,29.8,28.1,29.81,NNE,22,0.0,0.0,93,0.00,CLR,,0.00,WeatherDisplay:10.37,2013-03-08 12:42:00,
2013-03-08 04:47:00,29.8,28.1,29.81,NNE,22,0.0,0.0,93,0.00,CLR,,0.00,WeatherDisplay:10.37,2013-03-08 12:47:00,
2013-03-08 04:52:00,29.8,28.1,29.81,NNE,22,0.0,0.0,93,0.00,CLR,,0.00,WeatherDisplay:10.37,2013-03-08 12:52:00,
2013-03-08 04:57:00,29.7,27.9,29.82,NNE,22,0.0,0.0,93,0.00,CLR,,0.00,WeatherDisplay:10.37,2013-03-08 12:57:00,
2013-03-08 05:02:00,29.7,27.9,29.82,NNE,22,0.0,0.0,93,0.00,CLR,,0.00,WeatherDisplay:10.37,2013-03-08 13:02:00,
2013-03-08 05:07:00,29.7,27.9,29.82,NNE,22,0.0,0.0,93,0.00,CLR,,0.00,WeatherDisplay:10.37,2013-03-08 13:07:00,
2013-03-08 05:12:00,29.7,27.9,29.82,NNE,22,0.0,0.0,93,0.00,CLR,,0.00,WeatherDisplay:10.37,2013-03-08 13:12:00,
2013-03-08 05:17:00,29.7,28.1,29.82,NNE,22,0.0,0.0,94,0.00,CLR,,0.00,WeatherDisplay:10.37,2013-03-08 13:17:00,
2013-03-08 05:22:00,29.5,28.0,29.82,NNE,22,0.0,0.0,94,0.00,CLR,,0.00,WeatherDisplay:10.37,2013-03-08 13:22:00,
2013-03-08 05:27:00,29.5,28.0,29.82,NNE,22,0.0,0.0,94,0.00,CLR,,0.00,WeatherDisplay:10.37,2013-03-08 13:27:00,
2013-03-08 05:32:00,29.5,28.0,29.82,NNE,22,0.0,0.0,94,0.00,CLR,,0.00,WeatherDisplay:10.37,2013-03-08 13:32:00,
2013-03-08 05:37:00,29.7,28.1,29.83,NNE,22,0.0,0.0,94,0.00,CLR,,0.00,WeatherDisplay:10.37,2013-03-08 13:37:00,
2013-03-08 05:42:00,29.8,28.3,29.83,NNE,22,0.0,0.0,94,0.00,CLR,,0.00,WeatherDisplay:10.37,2013-03-08 13:42:00,
2013-03-08 05:47:00,30.0,28.5,29.83,NNE,22,0.0,0.0,94,0.00,CLR,,0.00,WeatherDisplay:10.37,2013-03-08 13:47:00,
2013-03-08 05:52:00,30.0,28.5,29.83,NNE,22,0.0,0.0,94,0.00,CLR,,0.00,WeatherDisplay:10.37,2013-03-08 13:52:00,
2013-03-08 05:57:00,30.2,28.7,29.83,NNE,22,0.0,0.0,94,0.00,CLR,,0.00,WeatherDisplay:10.37,2013-03-08 13:57:00,
2013-03-08 06:02:00,30.4,28.9,29.83,NNE,22,0.0,0.0,94,0.00,CLR,,0.00,WeatherDisplay:10.37,2013-03-08 14:02:00,
2013-03-08 06:07:00,30.4,28.9,29.83,NNE,22,0.0,0.0,94,0.00,CLR,,0.00,WeatherDisplay:10.37,2013-03-08 14:07:00,
2013-03-08 06:12:00,30.6,29.0,29.83,NNE,22,0.0,0.0,94,0.00,CLR,,0.00,WeatherDisplay:10.37,2013-03-08 14:12:00,
2013-03-08 06:17:00,30.7,29.2,29.83,NNE,22,0.0,0.0,94,0.00,CLR,,0.00,WeatherDisplay:10.37,2013-03-08 14:17:00,
2013-03-08 06:23:00,30.7,29.2,29.83,NNE,22,0.0,0.0,94,0.00,CLR,,0.00,WeatherDisplay:10.37,2013-03-08 14:23:00,
2013-03-08 06:28:00,30.7,29.2,29.83,NNE,22,0.0,0.0,94,0.00,CLR,,0.00,WeatherDisplay:10.37,2013-03-08 14:28:00,
2013-03-08 06:34:00,30.9,29.4,29.83,NNE,22,0.0,0.0,94,0.00,CLR,,0.00,WeatherDisplay:10.37,2013-03-08 14:34:00,
2013-03-08 06:39:00,30.9,29.4,29.83,NNE,22,0.0,0.0,94,0.00,CLR,,0.00,WeatherDisplay:10.37,2013-03-08 14:39:00,
2013-03-08 06:44:00,30.9,29.4,29.83,NNE,22,0.0,0.0,94,0.00,CLR,,0.00,WeatherDisplay:10.37,2013-03-08 14:44:00,
2013-03-08 06:49:00,31.1,29.6,29.83,NNE,22,0.0,0.0,94,0.00,CLR,,0.00,WeatherDisplay:10.37,2013-03-08 14:49:00,
2013-03-08 06:54:00,30.9,29.4,29.83,NNE,22,0.0,0.0,94,0.00,CLR,,0.00,WeatherDisplay:10.37,2013-03-08 14:54:00,
2013-03-08 06:59:00,31.1,29.6,29.83,NNE,22,0.0,0.0,94,0.00,CLR,,0.00,WeatherDisplay:10.37,2013-03-08 14:59:00,
2013-03-08 07:04:00,31.3,29.8,29.83,NNE,22,0.0,0.0,94,0.00,CLR,,0.00,WeatherDisplay:10.37,2013-03-08 15:04:00,
2013-03-08 07:09:00,31.3,29.8,29.83,NNE,22,0.0,0.0,94,0.00,CLR,,0.00,WeatherDisplay:10.37,2013-03-08 15:09:00,
2013-03-08 07:14:00,31.6,30.1,29.83,NNE,22,0.0,0.0,94,0.00,CLR,,0.00,WeatherDisplay:10.37,2013-03-08 15:14:00,
2013-03-08 07:19:00,31.6,30.1,29.83,NNE,22,0.0,0.0,94,0.00,CLR,,0.00,WeatherDisplay:10.37,2013-03-08 15:19:00,
2013-03-08 07:24:00,31.8,30.3,29.83,NNE,22,0.0,0.0,94,0.00,CLR,,0.00,WeatherDisplay:10.37,2013-03-08 15:24:00,
2013-03-08 07:29:00,31.8,30.3,29.83,NNE,22,0.0,0.0,94,0.00,CLR,,0.00,WeatherDisplay:10.37,2013-03-08 15:29:00,
2013-03-08 07:34:00,31.8,30.3,29.83,NNE,22,0.0,0.0,94,0.00,CLR,,0.00,WeatherDisplay:10.37,2013-03-08 15:34:00,
2013-03-08 07:39:00,32.2,30.6,29.83,NNE,22,0.0,0.0,94,0.00,CLR,,0.00,WeatherDisplay:10.37,2013-03-08 15:39:00,
2013-03-08 07:44:00,32.5,31.0,29.84,NNE,22,0.0,0.0,94,0.00,CLR,,0.00,WeatherDisplay:10.37,2013-03-08 15:44:00,
2013-03-08 07:49:00,32.5,31.0,29.84,NNE,22,0.0,0.0,94,0.00,CLR,,0.00,WeatherDisplay:10.37,2013-03-08 15:49:00,
2013-03-08 07:54:00,32.7,31.2,29.84,NNE,22,0.0,0.0,94,0.00,CLR,,0.00,WeatherDisplay:10.37,2013-03-08 15:54:00,
2013-03-08 07:59:00,33.1,31.5,29.84,NNE,22,0.0,0.0,94,0.00,CLR,,0.00,WeatherDisplay:10.37,2013-03-08 15:59:00,
2013-03-08 08:04:00,33.1,31.5,29.84,NNE,22,0.0,0.0,94,0.00,CLR,,0.00,WeatherDisplay:10.37,2013-03-08 16:04:00,
2013-03-08 08:09:00,33.4,32.2,29.84,NNE,22,0.0,0.0,95,0.00,CLR,,0.00,WeatherDisplay:10.37,2013-03-08 16:09:00,
2013-03-08 08:14:00,33.4,32.2,29.85,NNE,22,0.0,0.0,95,0.00,CLR,,0.00,WeatherDisplay:10.37,2013-03-08 16:14:00,
2013-03-08 08:19:00,33.6,32.3,29.85,NNE,22,0.0,0.0,95,0.00,CLR,,0.00,WeatherDisplay:10.37,2013-03-08 16:19:00,
2013-03-08 08:24:00,33.6,32.3,29.85,NNE,22,0.0,0.0,95,0.00,CLR,,0.00,WeatherDisplay:10.37,2013-03-08 16:24:00,
2013-03-08 08:29:00,33.6,32.3,29.85,NNE,22,0.0,0.0,95,0.00,CLR,,0.00,WeatherDisplay:10.37,2013-03-08 16:29:00,
2013-03-08 08:34:00,34.0,32.7,29.85,NNE,22,0.0,0.0,95,0.00,CLR,,0.00,WeatherDisplay:10.37,2013-03-08 16:34:00,
2013-03-08 08:39:00,34.2,32.9,29.85,NNE,22,0.0,0.0,95,0.00,CLR,,0.00,WeatherDisplay:10.37,2013-03-08 16:39:00,
2013-03-08 08:44:00,34.5,33.2,29.85,NNE,22,0.0,0.0,95,0.00,CLR,,0.00,WeatherDisplay:10.37,2013-03-08 16:44:00,
2013-03-08 08:49:00,34.9,33.6,29.85,NNE,22,0.0,0.0,95,0.00,CLR,,0.00,WeatherDisplay:10.37,2013-03-08 16:49:00,
2013-03-08 08:54:00,35.2,34.0,29.85,NNE,22,0.0,0.0,95,0.00,CLR,,0.00,WeatherDisplay:10.37,2013-03-08 16:54:00,
2013-03-08 08:59:00,35.8,34.5,29.85,NNW,338,0.0,0.0,95,0.00,CLR,,0.00,WeatherDisplay:10.37,2013-03-08 16:59:00,
2013-03-08 09:04:00,35.8,34.5,29.85,NNW,338,0.0,0.0,95,0.00,CLR,,0.00,WeatherDisplay:10.37,2013-03-08 17:04:00,
2013-03-08 09:09:00,36.1,34.8,29.85,NNW,338,0.0,0.0,95,0.00,CLR,,0.00,WeatherDisplay:10.37,2013-03-08 17:09:00,
2013-03-08 09:14:00,36.5,35.2,29.86,NNW,338,0.0,0.0,95,0.00,CLR,,0.00,WeatherDisplay:10.37,2013-03-08 17:14:00,
2013-03-08 09:19:00,36.9,35.6,29.86,NNW,338,0.0,0.0,95,0.00,CLR,,0.00,WeatherDisplay:10.37,2013-03-08 17:19:00,
2013-03-08 09:24:00,37.2,35.7,29.86,NNW,338,0.0,0.0,94,0.00,CLR,,0.00,WeatherDisplay:10.37,2013-03-08 17:24:00,
2013-03-08 09:29:00,37.6,36.3,29.85,NNW,338,0.0,0.0,95,0.00,CLR,,0.00,WeatherDisplay:10.37,2013-03-08 17:29:00,
2013-03-08 09:34:00,37.9,36.6,29.86,NNW,338,0.0,0.0,95,0.00,CLR,,0.00,WeatherDisplay:10.37,2013-03-08 17:34:00,
2013-03-08 09:39:00,38.3,37.0,29.86,NNW,338,0.0,0.0,95,0.00,CLR,,0.00,WeatherDisplay:10.37,2013-03-08 17:39:00,
2013-03-08 09:44:00,39.4,38.1,29.85,NNW,338,0.0,0.0,95,0.00,CLR,,0.00,WeatherDisplay:10.37,2013-03-08 17:44:00,
2013-03-08 09:49:00,40.1,38.5,29.86,WNW,292,0.0,0.0,94,0.00,CLR,,0.00,WeatherDisplay:10.37,2013-03-08 17:49:00,
2013-03-08 09:54:00,40.5,38.9,29.85,WNW,292,0.0,0.0,94,0.00,CLR,,0.00,WeatherDisplay:10.37,2013-03-08 17:54:00,
2013-03-08 09:59:00,41.0,39.4,29.86,WNW,292,0.0,0.0,94,0.00,CLR,,0.00,WeatherDisplay:10.37,2013-03-08 17:59:00,
2013-03-08 10:04:00,41.2,39.3,29.86,NNE,22,0.0,0.0,93,0.00,CLR,,0.00,WeatherDisplay:10.37,2013-03-08 18:04:00,
2013-03-08 10:09:00,41.4,39.5,29.86,WNW,292,0.0,0.0,93,0.00,CLR,,0.00,WeatherDisplay:10.37,2013-03-08 18:09:00,
2013-03-08 10:14:00,42.1,40.2,29.86,NNW,338,0.0,0.0,93,0.00,CLR,,0.00,WeatherDisplay:10.37,2013-03-08 18:14:00,
2013-03-08 10:19:00,42.6,40.5,29.86,WNW,292,2.5,2.5,92,0.00,CLR,,0.00,WeatherDisplay:10.37,2013-03-08 18:19:00,
2013-03-08 10:24:00,42.6,40.2,29.85,NW,315,0.0,0.0,91,0.00,CLR,,0.00,WeatherDisplay:10.37,2013-03-08 18:24:00,
2013-03-08 10:29:00,42.4,40.0,29.85,NW,315,0.0,0.0,91,0.00,CLR,,0.00,WeatherDisplay:10.37,2013-03-08 18:29:00,
2013-03-08 10:34:00,42.4,40.0,29.86,NNE,22,0.0,0.0,91,0.00,CLR,,0.00,WeatherDisplay:10.37,2013-03-08 18:34:00,
2013-03-08 10:39:00,42.6,40.2,29.85,NNW,338,0.0,0.0,91,0.00,CLR,,0.00,WeatherDisplay:10.37,2013-03-08 18:39:00,
2013-03-08 10:44:00,43.0,40.2,29.85,West,270,0.0,0.0,90,0.00,CLR,,0.00,WeatherDisplay:10.37,2013-03-08 18:44:00,
2013-03-08 10:49:00,43.3,40.6,29.85,WNW,292,0.0,0.0,90,0.00,CLR,,0.00,WeatherDisplay:10.37,2013-03-08 18:49:00,
2013-03-08 10:54:00,43.5,40.8,29.85,West,270,3.8,3.8,90,0.00,CLR,,0.00,WeatherDisplay:10.37,2013-03-08 18:54:00,
2013-03-08 10:59:00,43.9,41.1,29.85,WNW,292,6.9,6.9,90,0.00,CLR,,0.00,WeatherDisplay:10.37,2013-03-08 18:59:00,
2013-03-08 11:04:00,44.2,41.2,29.85,West,270,4.6,4.6,89,0.00,CLR,,0.00,WeatherDisplay:10.37,2013-03-08 19:04:00,
2013-03-08 11:09:00,44.2,41.2,29.85,NW,315,0.0,0.0,89,0.00,CLR,,0.00,WeatherDisplay:10.37,2013-03-08 19:09:00,
2013-03-08 11:14:00,45.0,41.6,29.85,WNW,292,3.5,3.5,88,0.00,CLR,,0.00,WeatherDisplay:10.37,2013-03-08 19:14:00,
2013-03-08 11:19:00,45.1,41.5,29.85,North,0,3.5,3.8,87,0.00,CLR,,0.00,WeatherDisplay:10.37,2013-03-08 19:19:00,
2013-03-08 11:24:00,45.5,41.6,29.85,NNE,22,0.0,0.0,86,0.00,CLR,,0.00,WeatherDisplay:10.37,2013-03-08 19:24:00,
2013-03-08 11:29:00,46.0,41.8,29.85,NE,45,0.0,0.0,85,0.00,CLR,,0.00,WeatherDisplay:10.37,2013-03-08 19:29:00,
2013-03-08 11:34:00,46.2,41.7,29.85,NNW,338,0.0,0.0,84,0.00,CLR,,0.00,WeatherDisplay:10.37,2013-03-08 19:34:00,
2013-03-08 11:39:00,46.6,41.7,29.85,WNW,292,4.6,4.7,83,0.00,CLR,,0.00,WeatherDisplay:10.37,2013-03-08 19:39:00,
2013-03-08 11:44:00,46.8,41.6,29.84,WNW,292,6.9,6.9,82,0.00,CLR,,0.00,WeatherDisplay:10.37,2013-03-08 19:44:00,
2013-03-08 11:49:00,47.1,41.6,29.85,WNW,292,3.5,3.5,81,0.00,CLR,,0.00,WeatherDisplay:10.37,2013-03-08 19:49:00,
2013-03-08 11:54:00,47.1,41.3,29.85,WNW,292,2.5,2.5,80,0.00,CLR,,0.00,WeatherDisplay:10.37,2013-03-08 19:54:00,
2013-03-08 11:59:00,47.5,41.6,29.84,WNW,292,6.9,6.9,80,0.00,CLR,,0.00,WeatherDisplay:10.37,2013-03-08 19:59:00,
2013-03-08 12:04:00,47.8,41.6,29.84,North,0,2.3,2.3,79,0.00,CLR,,0.00,WeatherDisplay:10.37,2013-03-08 20:04:00,
2013-03-08 12:09:00,48.0,41.2,29.84,North,0,5.8,6.0,77,0.00,CLR,,0.00,WeatherDisplay:10.37,2013-03-08 20:09:00,
2013-03-08 12:14:00,48.4,41.5,29.84,North,0,0.0,0.0,77,0.00,CLR,,0.00,WeatherDisplay:10.37,2013-03-08 20:14:00,
2013-03-08 12:19:00,48.6,41.3,29.84,NE,45,0.0,0.0,76,0.00,CLR,,0.00,WeatherDisplay:10.37,2013-03-08 20:19:00,
2013-03-08 12:24:00,48.6,41.0,29.84,NE,45,0.0,0.0,75,0.00,CLR,,0.00,WeatherDisplay:10.37,2013-03-08 20:24:00,
2013-03-08 12:29:00,49.1,41.9,29.84,NNW,338,0.0,0.0,76,0.00,CLR,,0.00,WeatherDisplay:10.37,2013-03-08 20:29:00,
2013-03-08 12:34:00,49.3,41.7,29.83,NNE,22,2.3,0.0,75,0.00,CLR,,0.00,WeatherDisplay:10.37,2013-03-08 20:34:00,
2013-03-08 12:39:00,49.5,41.9,29.83,North,0,0.0,0.0,75,0.00,CLR,,0.00,WeatherDisplay:10.37,2013-03-08 20:39:00,
2013-03-08 12:44:00,49.6,41.7,29.83,NW,315,1.2,1.2,74,0.00,CLR,,0.00,WeatherDisplay:10.37,2013-03-08 20:44:00,
2013-03-08 12:49:00,49.6,41.3,29.83,NE,45,0.0,0.0,73,0.00,CLR,,0.00,WeatherDisplay:10.37,2013-03-08 20:49:00,
2013-03-08 12:55:00,49.6,41.7,29.83,NW,315,5.8,5.8,74,0.00,CLR,,0.00,WeatherDisplay:10.37,2013-03-08 20:55:00,
2013-03-08 13:00:00,49.8,41.2,29.83,NE,45,0.0,0.0,72,0.00,CLR,,0.00,WeatherDisplay:10.37,2013-03-08 21:00:00,
2013-03-08 13:05:00,50.2,41.5,29.83,NNW,338,2.3,2.3,72,0.00,CLR,,0.00,WeatherDisplay:10.37,2013-03-08 21:05:00,
2013-03-08 13:10:00,50.4,41.7,29.83,NW,315,4.6,4.6,72,0.00,CLR,,0.00,WeatherDisplay:10.37,2013-03-08 21:10:00,
2013-03-08 13:15:00,50.4,41.7,29.83,WNW,292,0.0,0.0,72,0.00,CLR,,0.00,WeatherDisplay:10.37,2013-03-08 21:15:00,
2013-03-08 13:20:00,50.7,41.7,29.83,North,0,0.0,0.0,71,0.00,CLR,,0.00,WeatherDisplay:10.37,2013-03-08 21:20:00,
2013-03-08 13:25:00,50.9,41.8,29.83,West,270,0.0,0.0,71,0.00,CLR,,0.00,WeatherDisplay:10.37,2013-03-08 21:25:00,
2013-03-08 13:30:00,51.1,41.6,29.83,West,270,4.6,4.6,70,0.00,CLR,,0.00,WeatherDisplay:10.37,2013-03-08 21:30:00,
2013-03-08 13:35:00,51.3,41.8,29.83,West,270,0.0,0.0,70,0.00,CLR,,0.00,WeatherDisplay:10.37,2013-03-08 21:35:00,
2013-03-08 13:40:00,51.3,42.2,29.83,NW,315,3.5,3.5,71,0.00,CLR,,0.00,WeatherDisplay:10.37,2013-03-08 21:40:00,
2013-03-08 13:45:00,51.4,42.0,29.83,WNW,292,3.5,3.5,70,0.00,CLR,,0.00,WeatherDisplay:10.37,2013-03-08 21:45:00,
2013-03-08 13:50:00,51.3,42.2,29.83,NW,315,3.8,3.8,71,0.00,CLR,,0.00,WeatherDisplay:10.37,2013-03-08 21:50:00,
2013-03-08 13:55:00,51.4,42.3,29.83,NW,315,1.6,1.6,71,0.00,CLR,,0.00,WeatherDisplay:10.37,2013-03-08 21:55:00,
2013-03-08 14:00:00,51.4,42.0,29.83,NNW,338,0.0,0.0,70,0.00,CLR,,0.00,WeatherDisplay:10.37,2013-03-08 22:00:00,
2013-03-08 14:05:00,51.4,42.3,29.83,WSW,248,0.0,0.0,71,0.00,CLR,,0.00,WeatherDisplay:10.37,2013-03-08 22:05:00,
2013-03-08 14:10:00,51.6,42.5,29.83,NW,315,1.2,1.2,71,0.00,CLR,,0.00,WeatherDisplay:10.37,2013-03-08 22:10:00,
2013-03-08 14:15:00,51.6,42.2,29.83,NW,315,3.5,3.5,70,0.00,CLR,,0.00,WeatherDisplay:10.37,2013-03-08 22:15:00,
2013-03-08 14:20:00,51.8,42.3,29.83,WNW,292,3.4,3.4,70,0.00,CLR,,0.00,WeatherDisplay:10.37,2013-03-08 22:20:00,
2013-03-08 14:25:00,51.6,42.2,29.83,NNE,22,0.0,0.0,70,0.00,CLR,,0.00,WeatherDisplay:10.37,2013-03-08 22:25:00,
2013-03-08 14:30:00,51.6,42.2,29.83,WNW,292,4.6,4.6,70,0.00,CLR,,0.00,WeatherDisplay:10.37,2013-03-08 22:30:00,
2013-03-08 14:35:00,51.8,42.3,29.83,North,0,0.0,0.0,70,0.00,CLR,,0.00,WeatherDisplay:10.37,2013-03-08 22:35:00,
2013-03-08 14:40:00,52.0,42.5,29.83,NW,315,6.3,6.3,70,0.00,CLR,,0.00,WeatherDisplay:10.37,2013-03-08 22:40:00,
2013-03-08 14:45:00,52.0,42.1,29.83,NW,315,2.3,2.3,69,0.00,CLR,,0.00,WeatherDisplay:10.37,2013-03-08 22:45:00,
2013-03-08 14:50:00,52.0,42.1,29.83,North,0,4.5,4.5,69,0.00,CLR,,0.00,WeatherDisplay:10.37,2013-03-08 22:50:00,
2013-03-08 14:55:00,52.2,42.3,29.83,NW,315,8.3,8.3,69,0.00,CLR,,0.00,WeatherDisplay:10.37,2013-03-08 22:55:00,
2013-03-08 15:00:00,52.2,42.3,29.83,WNW,292,2.3,2.7,69,0.00,CLR,,0.00,WeatherDisplay:10.37,2013-03-08 23:00:00,
2013-03-08 15:05:00,52.2,42.3,29.83,WNW,292,1.6,1.6,69,0.00,CLR,,0.00,WeatherDisplay:10.37,2013-03-08 23:05:00,
2013-03-08 15:11:00,52.3,42.1,29.84,NNE,22,1.3,1.3,68,0.00,CLR,,0.00,WeatherDisplay:10.37,2013-03-08 23:11:00,
2013-03-08 15:16:00,52.2,41.9,29.84,NW,315,1.2,1.2,68,0.00,CLR,,0.00,WeatherDisplay:10.37,2013-03-08 23:16:00,
2013-03-08 15:21:00,52.2,41.5,29.84,North,0,3.5,0.0,67,0.00,CLR,,0.00,WeatherDisplay:10.37,2013-03-08 23:21:00,
2013-03-08 15:26:00,52.2,41.5,29.84,West,270,2.7,2.7,67,0.00,CLR,,0.00,WeatherDisplay:10.37,2013-03-08 23:26:00,
2013-03-08 15:31:00,52.2,41.5,29.84,NNE,22,5.8,5.8,67,0.00,CLR,,0.00,WeatherDisplay:10.37,2013-03-08 23:31:00,
2013-03-08 15:36:00,52.0,41.7,29.84,NNW,338,5.1,5.1,68,0.00,CLR,,0.00,WeatherDisplay:10.37,2013-03-08 23:36:00,
2013-03-08 15:41:00,52.0,41.7,29.84,NNE,22,0.0,0.0,68,0.00,CLR,,0.00,WeatherDisplay:10.37,2013-03-08 23:41:00,
2013-03-08 15:46:00,51.6,41.4,29.84,NNE,22,6.9,6.9,68,0.00,CLR,,0.00,WeatherDisplay:10.37,2013-03-08 23:46:00,
2013-03-08 15:51:00,51.6,41.4,29.84,NNE,22,5.8,5.8,68,0.00,CLR,,0.00,WeatherDisplay:10.37,2013-03-08 23:51:00,
2013-03-08 15:56:00,51.4,41.2,29.84,WNW,292,0.0,0.0,68,0.00,CLR,,0.00,WeatherDisplay:10.37,2013-03-08 23:56:00,
2013-03-08 16:01:00,51.4,41.6,29.84,WNW,292,0.0,0.0,69,0.00,CLR,,0.00,WeatherDisplay:10.37,2013-03-09 00:01:00,
2013-03-08 16:06:00,51.4,41.6,29.84,WNW,292,0.0,0.0,69,0.00,CLR,,0.00,WeatherDisplay:10.37,2013-03-09 00:06:00,
2013-03-08 16:11:00,51.4,41.6,29.84,NNE,22,2.5,2.5,69,0.00,CLR,,0.00,WeatherDisplay:10.37,2013-03-09 00:11:00,
2013-03-08 16:16:00,51.3,41.4,29.84,NW,315,1.2,1.2,69,0.00,CLR,,0.00,WeatherDisplay:10.37,2013-03-09 00:16:00,
2013-03-08 16:21:00,50.9,41.1,29.84,North,0,3.5,3.5,69,0.00,CLR,,0.00,WeatherDisplay:10.37,2013-03-09 00:21:00,
2013-03-08 16:26:00,50.7,40.9,29.84,WNW,292,6.9,6.9,69,0.00,CLR,,0.00,WeatherDisplay:10.37,2013-03-09 00:26:00,
2013-03-08 16:31:00,50.7,40.9,29.84,NNW,338,4.6,4.6,69,0.00,CLR,,0.00,WeatherDisplay:10.37,2013-03-09 00:31:00,
2013-03-08 16:36:00,50.7,41.3,29.84,NW,315,2.3,2.3,70,0.00,CLR,,0.00,WeatherDisplay:10.37,2013-03-09 00:36:00,
2013-03-08 16:42:00,50.5,41.1,29.85,North,0,0.0,0.0,70,0.00,CLR,,0.00,WeatherDisplay:10.37,2013-03-09 00:42:00,
2013-03-08 16:47:00,50.2,40.8,29.85,North,0,0.0,0.0,70,0.00,CLR,,0.00,WeatherDisplay:10.37,2013-03-09 00:47:00,
2013-03-08 16:52:00,49.8,40.8,29.84,NW,315,0.0,0.0,71,0.00,CLR,,0.00,WeatherDisplay:10.37,2013-03-09 00:52:00,
2013-03-08 16:57:00,49.8,40.8,29.85,NNW,338,0.0,0.0,71,0.00,CLR,,0.00,WeatherDisplay:10.37,2013-03-09 00:57:00,
2013-03-08 17:02:00,49.5,40.4,29.85,NNE,22,0.0,0.0,71,0.00,CLR,,0.00,WeatherDisplay:10.37,2013-03-09 01:02:00,
2013-03-08 17:07:00,49.1,40.1,29.85,North,0,0.0,0.0,71,0.00,CLR,,0.00,WeatherDisplay:10.37,2013-03-09 01:07:00,
2013-03-08 17:12:00,48.9,40.3,29.85,WNW,292,0.0,0.0,72,0.00,CLR,,0.00,WeatherDisplay:10.37,2013-03-09 01:12:00,
2013-03-08 17:18:00,48.6,39.9,29.85,NW,315,3.1,3.1,72,0.00,CLR,,0.00,WeatherDisplay:10.37,2013-03-09 01:18:00,
2013-03-08 17:23:00,48.4,40.1,29.86,North,0,0.0,0.0,73,0.00,CLR,,0.00,WeatherDisplay:10.37,2013-03-09 01:23:00,
2013-03-08 17:28:00,48.0,39.8,29.86,NNW,338,0.0,0.0,73,0.00,CLR,,0.00,WeatherDisplay:10.37,2013-03-09 01:28:00,
2013-03-08 17:33:00,47.8,39.6,29.86,WNW,292,0.0,0.0,73,0.00,CLR,,0.00,WeatherDisplay:10.37,2013-03-09 01:33:00,
2013-03-08 17:38:00,47.5,39.6,29.86,WNW,292,0.0,0.0,74,0.00,CLR,,0.00,WeatherDisplay:10.37,2013-03-09 01:38:00,
2013-03-08 17:43:00,47.3,39.4,29.86,NNE,22,0.0,0.0,74,0.00,CLR,,0.00,WeatherDisplay:10.37,2013-03-09 01:43:00,
2013-03-08 17:48:00,46.9,39.4,29.86,NW,315,0.0,0.0,75,0.00,CLR,,0.00,WeatherDisplay:10.37,2013-03-09 01:48:00,
2013-03-08 17:53:00,46.6,39.4,29.86,NNE,22,0.0,0.0,76,0.00,CLR,,0.00,WeatherDisplay:10.37,2013-03-09 01:53:00,
2013-03-08 17:58:00,46.4,39.2,29.87,NNE,22,0.0,0.0,76,0.00,CLR,,0.00,WeatherDisplay:10.37,2013-03-09 01:58:00,
2013-03-08 18:03:00,46.0,39.6,29.87,NNE,22,2.3,2.3,78,0.00,CLR,,0.00,WeatherDisplay:10.37,2013-03-09 02:03:00,
2013-03-08 18:08:00,45.7,39.2,29.87,NE,45,0.0,0.0,78,0.00,CLR,,0.00,WeatherDisplay:10.37,2013-03-09 02:08:00,
2013-03-08 18:13:00,45.7,39.5,29.87,NNE,22,0.0,0.0,79,0.00,CLR,,0.00,WeatherDisplay:10.37,2013-03-09 02:13:00,
2013-03-08 18:18:00,45.1,39.0,29.87,NNE,22,0.0,0.0,79,0.00,CLR,,0.00,WeatherDisplay:10.37,2013-03-09 02:18:00,
2013-03-08 18:23:00,45.0,38.8,29.87,NNE,22,2.3,0.0,79,0.00,CLR,,0.00,WeatherDisplay:10.37,2013-03-09 02:23:00,
2013-03-08 18:28:00,44.6,38.5,29.88,NNE,22,0.0,0.0,79,0.00,CLR,,0.00,WeatherDisplay:10.37,2013-03-09 02:28:00,
2013-03-08 18:33:00,44.4,38.6,29.88,NNE,22,0.0,0.0,80,0.00,CLR,,0.00,WeatherDisplay:10.37,2013-03-09 02:33:00,
2013-03-08 18:38:00,44.1,38.3,29.88,NNE,22,0.0,0.0,80,0.00,CLR,,0.00,WeatherDisplay:10.37,2013-03-09 02:38:00,
2013-03-08 18:43:00,43.7,37.9,29.88,NNE,22,0.0,0.0,80,0.00,CLR,,0.00,WeatherDisplay:10.37,2013-03-09 02:43:00,
2013-03-08 18:48:00,43.3,37.9,29.89,NNE,22,0.0,0.0,81,0.00,CLR,,0.00,WeatherDisplay:10.37,2013-03-09 02:48:00,
2013-03-08 18:53:00,43.0,37.5,29.89,NW,315,0.0,0.0,81,0.00,CLR,,0.00,WeatherDisplay:10.37,2013-03-09 02:53:00,
2013-03-08 18:58:00,42.6,37.2,29.89,NW,315,0.0,0.0,81,0.00,CLR,,0.00,WeatherDisplay:10.37,2013-03-09 02:58:00,
2013-03-08 19:03:00,42.6,37.8,29.89,North,0,0.0,0.0,83,0.00,CLR,,0.00,WeatherDisplay:10.37,2013-03-09 03:03:00,
2013-03-08 19:08:00,42.4,37.3,29.90,North,0,0.0,0.0,82,0.00,CLR,,0.00,WeatherDisplay:10.37,2013-03-09 03:08:00,
2013-03-08 19:13:00,42.1,37.0,29.90,North,0,0.0,0.0,82,0.00,CLR,,0.00,WeatherDisplay:10.37,2013-03-09 03:13:00,
2013-03-08 19:18:00,41.9,37.1,29.90,North,0,0.0,0.0,83,0.00,CLR,,0.00,WeatherDisplay:10.37,2013-03-09 03:18:00,
2013-03-08 19:23:00,41.5,36.8,29.91,North,0,0.0,0.0,83,0.00,CLR,,0.00,WeatherDisplay:10.37,2013-03-09 03:23:00,
2013-03-08 19:28:00,41.4,36.6,29.90,North,0,0.0,0.0,83,0.00,CLR,,0.00,WeatherDisplay:10.37,2013-03-09 03:28:00,
2013-03-08 19:33:00,40.8,36.1,29.91,North,0,0.0,0.0,83,0.00,CLR,,0.00,WeatherDisplay:10.37,2013-03-09 03:33:00,
2013-03-08 19:38:00,40.6,36.2,29.91,North,0,0.0,0.0,84,0.00,CLR,,0.00,WeatherDisplay:10.37,2013-03-09 03:38:00,
2013-03-08 19:43:00,40.3,35.8,29.91,North,0,0.0,0.0,84,0.00,CLR,,0.00,WeatherDisplay:10.37,2013-03-09 03:43:00,
2013-03-08 19:48:00,39.9,35.5,29.91,NNW,338,0.0,0.0,84,0.00,CLR,,0.00,WeatherDisplay:10.37,2013-03-09 03:48:00,
2013-03-08 19:53:00,39.7,35.6,29.91,NNW,338,0.0,0.0,85,0.00,CLR,,0.00,WeatherDisplay:10.37,2013-03-09 03:53:00,
2013-03-08 19:58:00,39.4,35.2,29.91,NNW,338,0.0,0.0,85,0.00,CLR,,0.00,WeatherDisplay:10.37,2013-03-09 03:58:00,
2013-03-08 20:03:00,39.0,34.9,29.92,NNW,338,0.0,0.0,85,0.00,CLR,,0.00,WeatherDisplay:10.37,2013-03-09 04:03:00,
2013-03-08 20:08:00,39.0,34.9,29.92,East,90,0.0,0.0,85,0.00,CLR,,0.00,WeatherDisplay:10.37,2013-03-09 04:08:00,
2013-03-08 20:13:00,38.8,34.7,29.93,East,90,0.0,0.0,85,0.00,CLR,,0.00,WeatherDisplay:10.37,2013-03-09 04:13:00,
2013-03-08 20:18:00,38.7,34.8,29.92,NE,45,0.0,0.0,86,0.00,CLR,,0.00,WeatherDisplay:10.37,2013-03-09 04:18:00,
2013-03-08 20:23:00,38.5,34.7,29.92,NE,45,0.0,0.0,86,0.00,CLR,,0.00,WeatherDisplay:10.37,2013-03-09 04:23:00,
2013-03-08 20:28:00,38.5,34.7,29.93,NE,45,0.0,0.0,86,0.00,CLR,,0.00,WeatherDisplay:10.37,2013-03-09 04:28:00,
2013-03-08 20:33:00,38.3,34.8,29.93,NE,45,0.0,0.0,87,0.00,CLR,,0.00,WeatherDisplay:10.37,2013-03-09 04:33:00,
2013-03-08 20:38:00,38.1,34.6,29.93,NE,45,0.0,0.0,87,0.00,CLR,,0.00,WeatherDisplay:10.37,2013-03-09 04:38:00,
2013-03-08 20:43:00,38.1,34.6,29.93,NE,45,0.0,0.0,87,0.00,CLR,,0.00,WeatherDisplay:10.37,2013-03-09 04:43:00,
2013-03-08 20:48:00,37.9,34.4,29.93,NE,45,0.0,0.0,87,0.00,CLR,,0.00,WeatherDisplay:10.37,2013-03-09 04:48:00,
2013-03-08 20:53:00,37.9,34.4,29.93,NE,45,0.0,0.0,87,0.00,CLR,,0.00,WeatherDisplay:10.37,2013-03-09 04:53:00,
2013-03-08 20:58:00,37.8,34.2,29.93,NE,45,0.0,0.0,87,0.00,CLR,,0.00,WeatherDisplay:10.37,2013-03-09 04:58:00,
2013-03-08 21:00:00,37.8,34.2,29.93,NE,45,0.0,0.0,87,0.00,CLR,,0.00,WeatherDisplay:10.37,2013-03-09 05:00:00,
2013-03-08 21:05:00,37.6,34.3,29.93,NE,45,0.0,0.0,88,0.00,CLR,,0.00,WeatherDisplay:10.37,2013-03-09 05:05:00,
2013-03-08 21:10:00,37.4,34.2,29.93,NE,45,0.0,0.0,88,0.00,CLR,,0.00,WeatherDisplay:10.37,2013-03-09 05:10:00,
2013-03-08 21:14:00,37.2,34.0,29.93,NE,45,0.0,0.0,88,0.00,CLR,,0.00,WeatherDisplay:10.37,2013-03-09 05:14:00,
2013-03-08 21:16:00,37.2,34.0,29.93,NE,45,0.0,0.0,88,0.00,CLR,,0.00,WeatherDisplay:10.37,2013-03-09 05:16:00,
2013-03-08 21:21:00,37.2,34.0,29.94,NE,45,0.0,0.0,88,0.00,CLR,,0.00,WeatherDisplay:10.37,2013-03-09 05:21:00,
2013-03-08 21:26:00,37.0,34.1,29.94,NE,45,0.0,0.0,89,0.00,CLR,,0.00,WeatherDisplay:10.37,2013-03-09 05:26:00,
2013-03-08 21:30:00,37.0,34.1,29.94,NE,45,0.0,0.0,89,0.00,CLR,,0.00,WeatherDisplay:10.37,2013-03-09 05:30:00,
2013-03-08 21:35:00,37.0,34.1,29.94,NE,45,0.0,0.0,89,0.00,CLR,,0.00,WeatherDisplay:10.37,2013-03-09 05:35:00,
2013-03-08 21:40:00,36.9,33.9,29.94,NE,45,0.0,0.0,89,0.00,CLR,,0.00,WeatherDisplay:10.37,2013-03-09 05:40:00,
2013-03-08 21:45:00,36.7,33.5,29.94,NE,45,0.0,0.0,88,0.00,CLR,,0.00,WeatherDisplay:10.37,2013-03-09 05:45:00,
2013-03-08 21:50:00,36.5,33.6,29.94,NE,45,0.0,0.0,89,0.00,CLR,,0.00,WeatherDisplay:10.37,2013-03-09 05:50:00,
2013-03-08 21:55:00,36.3,33.4,29.94,NE,45,0.0,0.0,89,0.00,CLR,,0.00,WeatherDisplay:10.37,2013-03-09 05:55:00,
2013-03-08 22:00:00,36.1,33.2,29.94,NE,45,0.0,0.0,89,0.00,CLR,,0.00,WeatherDisplay:10.37,2013-03-09 06:00:00,
2013-03-08 22:05:00,36.0,33.0,29.94,ENE,68,0.0,0.0,89,0.00,CLR,,0.00,WeatherDisplay:10.37,2013-03-09 06:05:00,
2013-03-08 22:10:00,36.0,33.0,29.94,ENE,68,0.0,0.0,89,0.00,CLR,,0.00,WeatherDisplay:10.37,2013-03-09 06:10:00,
2013-03-08 22:15:00,35.8,32.9,29.94,ENE,68,0.0,0.0,89,0.00,CLR,,0.00,WeatherDisplay:10.37,2013-03-09 06:15:00,
2013-03-08 22:20:00,35.8,32.9,29.94,ENE,68,0.0,0.0,89,0.00,CLR,,0.00,WeatherDisplay:10.37,2013-03-09 06:20:00,
2013-03-08 22:25:00,35.8,32.9,29.94,ENE,68,0.0,0.0,89,0.00,CLR,,0.00,WeatherDisplay:10.37,2013-03-09 06:25:00,
2013-03-08 22:30:00,35.4,32.5,29.95,ENE,68,0.0,0.0,89,0.00,CLR,,0.00,WeatherDisplay:10.37,2013-03-09 06:30:00,
2013-03-08 22:35:00,35.4,32.8,29.95,ENE,68,0.0,0.0,90,0.00,CLR,,0.00,WeatherDisplay:10.37,2013-03-09 06:35:00,
2013-03-08 22:40:00,35.2,32.6,29.95,ENE,68,0.0,0.0,90,0.00,CLR,,0.00,WeatherDisplay:10.37,2013-03-09 06:40:00,
2013-03-08 22:45:00,35.2,32.6,29.95,ENE,68,0.0,0.0,90,0.00,CLR,,0.00,WeatherDisplay:10.37,2013-03-09 06:45:00,
2013-03-08 22:50:00,34.9,32.2,29.95,ENE,68,0.0,0.0,90,0.00,CLR,,0.00,WeatherDisplay:10.37,2013-03-09 06:50:00,
2013-03-08 22:55:00,34.7,32.1,29.96,ENE,68,0.0,0.0,90,0.00,CLR,,0.00,WeatherDisplay:10.37,2013-03-09 06:55:00,
2013-03-08 23:00:00,34.5,31.9,29.96,ENE,68,0.0,0.0,90,0.00,CLR,,0.00,WeatherDisplay:10.37,2013-03-09 07:00:00,
2013-03-08 23:05:00,34.3,31.7,29.96,ENE,68,0.0,0.0,90,0.00,CLR,,0.00,WeatherDisplay:10.37,2013-03-09 07:05:00,
2013-03-08 23:10:00,34.3,31.7,29.96,ENE,68,0.0,0.0,90,0.00,CLR,,0.00,WeatherDisplay:10.37,2013-03-09 07:10:00,
2013-03-08 23:15:00,34.2,31.5,29.96,ENE,68,0.0,0.0,90,0.00,CLR,,0.00,WeatherDisplay:10.37,2013-03-09 07:15:00,
2013-03-08 23:20:00,34.0,31.4,29.96,ENE,68,0.0,0.0,90,0.00,CLR,,0.00,WeatherDisplay:10.37,2013-03-09 07:20:00,
2013-03-08 23:25:00,33.6,31.0,29.96,ENE,68,0.0,0.0,90,0.00,CLR,,0.00,WeatherDisplay:10.37,2013-03-09 07:25:00,
2013-03-08 23:30:00,33.6,31.0,29.96,ENE,68,0.0,0.0,90,0.00,CLR,,0.00,WeatherDisplay:10.37,2013-03-09 07:30:00,
2013-03-08 23:35:00,33.4,30.8,29.96,ENE,68,0.0,0.0,90,0.00,CLR,,0.00,WeatherDisplay:10.37,2013-03-09 07:35:00,
2013-03-08 23:40:00,33.1,30.5,29.96,ENE,68,0.0,0.0,90,0.00,CLR,,0.00,WeatherDisplay:10.37,2013-03-09 07:40:00,
2013-03-08 23:45:00,33.1,30.5,29.97,ENE,68,0.0,0.0,90,0.00,CLR,,0.00,WeatherDisplay:10.37,2013-03-09 07:45:00,
2013-03-08 23:50:00,32.7,30.4,29.96,ENE,68,0.0,0.0,91,0.00,CLR,,0.00,WeatherDisplay:10.37,2013-03-09 07:50:00,
2013-03-08 23:55:00,32.7,30.4,29.97,ENE,68,0.0,0.0,91,0.00,CLR,,0.00,WeatherDisplay:10.37,2013-03-09 07:55:00,